createdAt,value
2022-12-04T00:01:27.943Z,68.40
2022-12-04T00:03:58.997Z,68.41
2022-12-04T00:06:27.467Z,68.24
2022-12-04T00:08:56.298Z,68.18
2022-12-04T00:11:26.547Z,68.18
2022-12-04T00:13:54.993Z,68.19
2022-12-04T00:16:25.072Z,68.26
2022-12-04T00:18:53.424Z,68.27
2022-12-04T00:21:21.937Z,68.39
2022-12-04T00:23:50.051Z,68.11
2022-12-04T00:26:26.165Z,67.90
2022-12-04T00:28:55.954Z,68.07
2022-12-04T00:31:25.954Z,68.35
2022-12-04T00:33:54.166Z,68.12
2022-12-04T00:36:23.893Z,68.27
2022-12-04T00:38:51.906Z,68.37
2022-12-04T00:41:22.251Z,68.46
2022-12-04T00:43:50.004Z,68.71
2022-12-04T00:46:18.117Z,68.54
2022-12-04T00:48:46.491Z,68.75
2022-12-04T00:51:18.125Z,68.69
2022-12-04T00:53:46.445Z,68.66
2022-12-04T00:56:21.811Z,68.27
2022-12-04T00:58:52.733Z,68.60
2022-12-04T01:01:21.763Z,68.18
2022-12-04T01:03:49.990Z,68.21
2022-12-04T01:06:30.272Z,68.38
2022-12-04T01:08:59.033Z,68.28
2022-12-04T01:11:28.474Z,68.32
2022-12-04T01:13:56.917Z,68.33
2022-12-04T01:16:30.466Z,68.29
2022-12-04T01:18:58.644Z,68.49
2022-12-04T01:21:26.631Z,68.35
2022-12-04T01:23:54.872Z,68.49
2022-12-04T01:26:22.715Z,68.54
2022-12-04T01:28:50.457Z,68.42
2022-12-04T01:31:20.570Z,68.26
2022-12-04T01:33:49.374Z,68.49
2022-12-04T01:36:20.537Z,68.46
2022-12-04T01:38:48.627Z,68.38
2022-12-04T01:41:20.234Z,68.50
2022-12-04T01:44:26.381Z,68.45
2022-12-04T01:46:55.989Z,68.40
2022-12-04T01:49:28.728Z,68.26
2022-12-04T01:52:01.341Z,68.39
2022-12-04T01:54:32.829Z,68.32
2022-12-04T01:57:06.063Z,68.31
2022-12-04T01:59:37.819Z,68.29
2022-12-04T02:02:10.057Z,68.50
2022-12-04T02:04:40.326Z,68.35
2022-12-04T02:07:09.120Z,68.33
2022-12-04T02:09:39.470Z,68.21
2022-12-04T02:12:24.301Z,68.27
2022-12-04T02:15:08.336Z,68.31
2022-12-04T02:18:08.507Z,68.70
2022-12-04T02:20:55.416Z,68.47
2022-12-04T02:23:38.475Z,68.75
2022-12-04T02:26:15.181Z,68.84
2022-12-04T02:28:48.748Z,68.83
2022-12-04T02:31:28.671Z,68.57
2022-12-04T02:34:01.717Z,68.50
2022-12-04T02:36:31.879Z,68.37
2022-12-04T02:39:12.886Z,68.13
2022-12-04T02:42:06.943Z,68.26
2022-12-04T02:44:50.873Z,68.19
2022-12-04T02:47:22.538Z,68.12
2022-12-04T02:50:00.609Z,68.00
2022-12-04T02:52:34.760Z,67.82
2022-12-04T02:55:12.763Z,67.66
2022-12-04T02:57:43.406Z,68.03
2022-12-04T03:00:11.923Z,67.91
2022-12-04T03:02:48.997Z,67.80
2022-12-04T03:05:19.429Z,68.03
2022-12-04T03:07:57.975Z,67.78
2022-12-04T03:10:33.427Z,67.76
2022-12-04T03:13:43.379Z,67.51
2022-12-04T03:16:17.743Z,67.44
2022-12-04T03:18:54.706Z,67.45
2022-12-04T03:21:25.422Z,67.45
2022-12-04T03:24:15.485Z,67.59
2022-12-04T03:27:09.866Z,67.93
2022-12-04T03:29:55.054Z,67.72
2022-12-04T03:32:25.708Z,67.72
2022-12-04T03:35:12.367Z,67.72
2022-12-04T03:37:51.963Z,67.53
2022-12-04T03:40:48.650Z,67.28
2022-12-04T03:43:24.059Z,67.31
2022-12-04T03:46:01.353Z,67.25
2022-12-04T03:48:41.447Z,67.10
2022-12-04T03:51:37.436Z,67.03
2022-12-04T03:54:08.029Z,66.81
2022-12-04T03:56:40.324Z,66.78
2022-12-04T03:59:12.647Z,66.92
2022-12-04T04:01:43.207Z,67.11
2022-12-04T04:04:14.318Z,67.20
2022-12-04T04:06:54.755Z,67.37
2022-12-04T04:09:27.033Z,67.37
2022-12-04T04:11:54.600Z,67.40
2022-12-04T04:14:46.132Z,67.19
2022-12-04T04:17:38.411Z,67.27
2022-12-04T04:20:28.965Z,67.42
2022-12-04T04:23:17.949Z,67.18
2022-12-04T04:25:47.283Z,67.44
2022-12-04T04:28:39.171Z,67.53
2022-12-04T04:31:26.343Z,67.64
2022-12-04T04:34:32.744Z,67.78
2022-12-04T04:37:13.781Z,67.93
2022-12-04T04:39:44.356Z,67.93
2022-12-04T04:42:28.055Z,67.98
2022-12-04T04:45:20.809Z,68.09
2022-12-04T04:47:53.260Z,68.03
2022-12-04T04:50:21.804Z,67.95
2022-12-04T04:52:53.124Z,68.24
2022-12-04T04:55:21.086Z,68.27
2022-12-04T04:57:48.777Z,68.67
2022-12-04T05:00:24.039Z,68.58
2022-12-04T05:02:51.782Z,68.59
2022-12-04T05:05:19.552Z,68.55
2022-12-04T05:07:47.308Z,68.64
2022-12-04T05:10:15.227Z,68.64
2022-12-04T05:12:42.882Z,68.67
2022-12-04T05:15:10.952Z,68.58
2022-12-04T05:17:38.872Z,68.66
2022-12-04T05:20:07.395Z,68.66
2022-12-04T05:22:36.924Z,68.67
2022-12-04T05:25:05.350Z,68.80
2022-12-04T05:27:33.300Z,68.87
2022-12-04T05:30:01.016Z,68.97
2022-12-04T05:32:29.790Z,69.33
2022-12-04T05:34:58.030Z,69.39
2022-12-04T05:37:25.847Z,69.41
2022-12-04T05:39:54.184Z,69.40
2022-12-04T05:42:22.600Z,69.49
2022-12-04T05:44:50.759Z,69.69
2022-12-04T05:47:18.577Z,69.60
2022-12-04T05:49:46.214Z,69.53
2022-12-04T05:52:13.990Z,69.70
2022-12-04T05:54:41.742Z,69.82
2022-12-04T05:57:09.456Z,69.61
2022-12-04T05:59:37.325Z,69.70
2022-12-04T06:02:05.275Z,69.51
2022-12-04T06:04:33.099Z,69.50
2022-12-04T06:07:00.803Z,69.43
2022-12-04T06:09:28.523Z,69.15
2022-12-04T06:11:59.050Z,69.35
2022-12-04T06:14:26.804Z,69.39
2022-12-04T06:16:54.664Z,69.52
2022-12-04T06:19:23.190Z,69.30
2022-12-04T06:21:52.526Z,69.11
2022-12-04T06:24:24.754Z,68.92
2022-12-04T06:29:43.389Z,69.05
2022-12-04T06:32:12.991Z,69.04
2022-12-04T06:34:43.038Z,69.34
2022-12-04T06:37:10.675Z,69.28
2022-12-04T06:39:38.607Z,69.47
2022-12-04T06:42:06.324Z,69.08
2022-12-04T06:44:34.042Z,69.29
2022-12-04T06:47:01.816Z,69.11
2022-12-04T06:49:29.574Z,69.13
2022-12-04T06:51:57.387Z,69.24
2022-12-04T06:54:26.198Z,69.10
2022-12-04T06:56:54.048Z,69.18
2022-12-04T06:59:21.823Z,69.01
2022-12-04T07:01:49.648Z,68.99
2022-12-04T07:04:17.442Z,69.17
2022-12-04T07:06:45.134Z,69.29
2022-12-04T07:09:17.292Z,69.50
2022-12-04T07:11:45.253Z,69.53
2022-12-04T07:14:13.470Z,69.63
2022-12-04T07:16:42.739Z,69.66
2022-12-04T07:19:13.317Z,69.78
2022-12-04T07:21:41.633Z,69.66
2022-12-04T07:24:14.187Z,69.69
2022-12-04T07:26:42.505Z,69.65
2022-12-04T07:29:10.718Z,69.69
2022-12-04T07:31:38.873Z,69.77
2022-12-04T07:34:06.818Z,69.74
2022-12-04T07:36:34.556Z,69.56
2022-12-04T07:39:02.255Z,69.49
2022-12-04T07:41:30.201Z,69.38
2022-12-04T07:43:58.805Z,69.39
2022-12-04T07:46:28.033Z,69.34
2022-12-04T07:48:57.657Z,69.35
2022-12-04T07:51:29.559Z,68.93
2022-12-04T07:54:04.057Z,69.32
2022-12-04T07:56:33.291Z,69.22
2022-12-04T07:59:01.192Z,69.11
2022-12-04T08:01:29.399Z,69.07
2022-12-04T08:03:58.864Z,68.47
2022-12-04T08:06:28.794Z,68.35
2022-12-04T08:08:57.361Z,68.07
2022-12-04T08:11:26.862Z,68.21
2022-12-04T08:13:59.362Z,68.21
2022-12-04T08:16:29.119Z,68.07
2022-12-04T08:18:57.308Z,67.85
2022-12-04T08:21:27.433Z,67.59
2022-12-04T08:23:56.701Z,67.83
2022-12-04T08:26:26.209Z,67.41
2022-12-04T08:28:55.050Z,67.33
2022-12-04T08:31:25.621Z,67.25
2022-12-04T08:33:55.741Z,67.11
2022-12-04T08:36:24.039Z,66.77
2022-12-04T08:38:52.358Z,66.80
2022-12-04T08:41:21.440Z,66.59
2022-12-04T08:43:50.180Z,66.69
2022-12-04T08:46:18.659Z,66.51
2022-12-04T08:48:46.756Z,66.27
2022-12-04T08:51:17.390Z,66.05
2022-12-04T08:53:45.565Z,65.89
2022-12-04T08:56:14.162Z,65.95
2022-12-04T08:58:42.125Z,65.60
2022-12-04T09:01:12.356Z,65.30
2022-12-04T09:03:41.281Z,65.51
2022-12-04T09:06:12.209Z,65.46
2022-12-04T09:08:40.652Z,65.43
2022-12-04T09:11:08.378Z,65.43
2022-12-04T09:13:36.558Z,65.50
2022-12-04T09:16:07.090Z,65.45
2022-12-04T09:18:36.977Z,65.45
2022-12-04T09:21:08.147Z,65.49
2022-12-04T09:23:39.734Z,65.44
2022-12-04T09:26:26.181Z,65.30
2022-12-04T09:28:55.599Z,65.31
2022-12-04T09:31:24.367Z,65.17
2022-12-04T09:33:52.532Z,66.20
2022-12-04T09:36:20.913Z,66.05
2022-12-04T09:38:50.725Z,65.66
2022-12-04T09:41:36.982Z,65.46
2022-12-04T09:44:18.829Z,66.21
2022-12-04T09:46:52.733Z,66.05
2022-12-04T09:49:20.495Z,66.05
2022-12-04T09:51:49.062Z,66.14
2022-12-04T09:54:18.636Z,65.95
2022-12-04T09:56:54.984Z,65.41
2022-12-04T09:59:28.036Z,65.09
2022-12-04T10:02:04.040Z,64.58
2022-12-04T10:04:32.113Z,64.45
2022-12-04T10:07:44.585Z,64.69
2022-12-04T10:10:21.541Z,64.59
2022-12-04T10:13:09.930Z,64.91
2022-12-04T10:16:00.131Z,64.73
2022-12-04T10:18:54.355Z,64.32
2022-12-04T10:21:36.766Z,63.74
2022-12-04T10:24:16.791Z,64.14
2022-12-04T10:26:46.476Z,64.16
2022-12-04T10:29:29.569Z,62.84
2022-12-04T10:32:16.127Z,62.90
2022-12-04T10:34:45.942Z,62.49
2022-12-04T10:37:15.512Z,61.89
2022-12-04T10:39:56.557Z,61.89
2022-12-04T10:42:39.975Z,61.83
2022-12-04T10:45:08.262Z,62.09
2022-12-04T10:47:36.450Z,61.82
2022-12-04T10:50:19.834Z,60.99
2022-12-04T10:52:47.621Z,60.50
2022-12-04T10:55:26.967Z,60.67
2022-12-04T10:57:54.773Z,59.93
2022-12-04T11:00:33.965Z,59.36
2022-12-04T11:03:04.649Z,59.02
2022-12-04T11:05:54.061Z,59.10
2022-12-04T11:08:27.578Z,59.06
2022-12-04T11:11:06.333Z,59.01
2022-12-04T11:13:35.123Z,58.05
2022-12-04T11:20:46.882Z,56.32
2022-12-04T11:23:16.214Z,55.47
2022-12-04T11:25:52.793Z,55.06
2022-12-04T11:31:19.210Z,55.02
2022-12-04T11:34:09.411Z,54.63
2022-12-04T11:36:42.648Z,54.07
2022-12-04T11:39:13.412Z,53.83
2022-12-04T11:41:41.657Z,54.33
2022-12-04T11:44:26.382Z,54.17
2022-12-04T11:46:58.246Z,53.85
2022-12-04T11:49:27.171Z,53.22
2022-12-04T11:52:30.464Z,53.11
2022-12-04T11:55:03.978Z,53.47
2022-12-04T11:57:40.753Z,53.99
2022-12-04T12:00:16.512Z,53.94
2022-12-04T12:02:55.148Z,54.28
2022-12-04T12:05:35.271Z,54.40
2022-12-04T12:08:35.145Z,53.83
2022-12-04T12:11:12.038Z,53.83
2022-12-04T12:13:55.508Z,53.86
2022-12-04T12:19:46.519Z,54.25
2022-12-04T12:22:33.693Z,54.39
2022-12-04T12:25:31.045Z,54.80
2022-12-04T12:28:05.608Z,54.77
2022-12-04T12:31:05.427Z,54.65
2022-12-04T12:33:43.167Z,54.67
2022-12-04T12:36:12.940Z,54.04
2022-12-04T12:38:47.893Z,53.92
2022-12-04T12:41:19.088Z,53.57
2022-12-04T12:44:00.136Z,53.79
2022-12-04T12:46:34.037Z,54.16
2022-12-04T12:49:12.923Z,54.11
2022-12-04T12:52:07.422Z,54.22
2022-12-04T12:54:44.361Z,54.13
2022-12-04T12:57:15.603Z,54.22
2022-12-04T12:59:50.551Z,54.26
2022-12-04T13:02:27.590Z,54.31
2022-12-04T13:05:01.642Z,54.19
2022-12-04T13:07:50.980Z,54.02
2022-12-04T13:10:24.247Z,54.21
2022-12-04T13:13:06.115Z,54.68
2022-12-04T13:15:43.150Z,55.15
2022-12-04T13:18:25.432Z,55.36
2022-12-04T13:20:57.007Z,55.68
2022-12-04T13:24:02.761Z,55.98
2022-12-04T13:26:49.546Z,56.21
2022-12-04T13:29:40.564Z,56.94
2022-12-04T13:32:45.569Z,57.54
2022-12-04T13:35:47.824Z,58.07
2022-12-04T13:38:46.715Z,58.36
2022-12-04T13:41:20.675Z,58.41
2022-12-04T13:43:49.688Z,58.68
2022-12-04T13:46:36.928Z,58.93
2022-12-04T13:49:31.676Z,59.10
2022-12-04T13:52:02.256Z,59.36
2022-12-04T13:54:37.334Z,59.66
2022-12-04T13:57:22.466Z,59.92
2022-12-04T14:00:02.175Z,60.23
2022-12-04T14:02:47.361Z,60.48
2022-12-04T14:05:15.204Z,60.80
2022-12-04T14:07:56.797Z,60.96
2022-12-04T14:10:34.486Z,61.39
2022-12-04T14:13:05.777Z,61.62
2022-12-04T14:15:35.793Z,62.18
2022-12-04T14:18:17.973Z,62.42
2022-12-04T14:20:45.758Z,62.64
2022-12-04T14:23:17.934Z,62.77
2022-12-04T14:25:45.608Z,62.96
2022-12-04T14:28:31.527Z,63.43
2022-12-04T14:31:10.365Z,63.87
2022-12-04T14:33:51.567Z,64.37
2022-12-04T14:36:25.125Z,64.71
2022-12-04T14:39:23.566Z,64.84
2022-12-04T15:00:18.110Z,64.86
2022-12-04T15:02:46.253Z,64.86
2022-12-04T15:05:23.766Z,65.25
2022-12-04T15:07:53.202Z,65.32
2022-12-04T15:10:44.225Z,65.71
2022-12-04T15:13:10.629Z,65.97
2022-12-04T15:15:37.524Z,66.01
2022-12-04T15:18:14.835Z,65.96
2022-12-04T15:20:55.426Z,66.39
2022-12-04T15:23:40.821Z,66.62
2022-12-04T15:26:10.914Z,66.94
2022-12-04T15:29:02.865Z,67.13
2022-12-04T15:31:34.670Z,67.69
2022-12-04T15:34:07.431Z,67.87
2022-12-04T15:36:36.750Z,67.91
2022-12-04T15:39:04.357Z,68.23
2022-12-04T15:41:35.541Z,68.24
2022-12-04T15:44:19.216Z,68.45
2022-12-04T15:46:45.803Z,68.58
2022-12-04T15:49:19.276Z,68.63
2022-12-04T15:51:46.936Z,68.67
2022-12-04T15:54:24.122Z,68.70
2022-12-04T15:57:02.168Z,68.71
2022-12-04T15:59:29.172Z,68.80
2022-12-04T16:02:03.496Z,68.93
2022-12-04T16:04:34.944Z,69.09
2022-12-04T16:07:02.432Z,69.28
2022-12-04T16:09:29.731Z,69.14
2022-12-04T16:11:58.249Z,69.29
2022-12-04T16:14:24.791Z,69.77
2022-12-04T16:16:52.744Z,69.71
2022-12-04T16:19:33.868Z,70.17
2022-12-04T16:22:02.275Z,70.08
2022-12-04T16:24:28.777Z,70.15
2022-12-04T16:27:00.410Z,71.04
2022-12-04T16:29:26.901Z,71.55
2022-12-04T16:31:55.165Z,71.35
2022-12-04T16:34:25.971Z,70.99
2022-12-04T16:36:52.270Z,71.46
2022-12-04T16:39:18.862Z,72.01
2022-12-04T16:41:45.298Z,71.38
2022-12-04T16:44:14.650Z,71.50
2022-12-04T16:46:41.825Z,70.61
2022-12-04T16:49:11.480Z,70.65
2022-12-04T16:51:42.296Z,70.62
2022-12-04T16:54:10.447Z,70.72
2022-12-04T16:56:36.874Z,70.79
2022-12-04T16:59:05.563Z,71.10
2022-12-04T17:01:42.136Z,71.17
2022-12-04T17:04:08.986Z,71.40
2022-12-04T17:06:35.466Z,71.39
2022-12-04T17:09:03.072Z,71.34
2022-12-04T17:11:29.792Z,71.34
2022-12-04T17:14:02.311Z,71.51
2022-12-04T17:16:29.880Z,71.70
2022-12-04T17:18:57.389Z,71.64
2022-12-04T17:21:24.766Z,71.60
2022-12-04T17:23:51.818Z,71.42
2022-12-04T17:26:19.039Z,71.97
2022-12-04T17:29:56.438Z,71.99
2022-12-04T17:32:23.422Z,71.69
2022-12-04T17:38:37.247Z,71.90
2022-12-04T17:41:04.747Z,73.03
2022-12-04T17:43:36.183Z,72.59
2022-12-04T17:46:19.898Z,72.17
2022-12-04T17:48:48.463Z,72.13
2022-12-04T17:51:21.677Z,72.24
2022-12-04T17:53:48.930Z,72.51
2022-12-04T17:56:19.303Z,71.73
2022-12-04T17:58:47.015Z,72.36
2022-12-04T18:01:19.640Z,71.78
2022-12-04T18:03:58.534Z,71.51
2022-12-04T18:06:28.455Z,71.47
2022-12-04T18:08:55.994Z,71.32
2022-12-04T18:11:28.131Z,71.20
2022-12-04T18:13:57.643Z,71.05
2022-12-04T18:16:28.911Z,71.10
2022-12-04T18:19:01.198Z,71.34
2022-12-04T18:32:18.051Z,68.87
2022-12-04T18:34:54.573Z,68.62
2022-12-04T18:37:22.777Z,68.89
2022-12-04T18:39:51.086Z,69.27
2022-12-04T18:42:19.193Z,69.24
2022-12-04T18:44:47.308Z,69.45
2022-12-04T18:47:16.280Z,69.89
2022-12-04T18:49:45.512Z,70.09
2022-12-04T18:52:13.696Z,70.17
2022-12-04T18:54:44.114Z,70.46
2022-12-04T18:57:14.156Z,70.52
2022-12-04T18:59:48.406Z,70.36
2022-12-04T19:02:24.024Z,70.48
2022-12-04T19:05:47.890Z,70.57
2022-12-04T19:08:16.527Z,70.73
2022-12-04T19:10:44.697Z,70.87
2022-12-04T19:13:15.026Z,70.80
2022-12-04T19:15:47.775Z,70.92
2022-12-04T19:18:15.990Z,70.85
2022-12-04T19:20:47.174Z,70.98
2022-12-04T19:23:15.188Z,70.83
2022-12-04T19:25:43.167Z,70.97
2022-12-04T19:28:11.446Z,70.92
2022-12-04T19:30:40.966Z,70.74
2022-12-04T19:33:08.956Z,70.85
2022-12-04T19:35:37.712Z,70.96
2022-12-04T19:38:06.697Z,71.05
2022-12-04T19:40:36.122Z,71.24
2022-12-04T19:43:04.288Z,71.64
2022-12-04T19:45:33.497Z,71.57
2022-12-04T19:48:02.385Z,71.52
2022-12-04T19:50:32.324Z,71.64
2022-12-04T19:53:00.606Z,71.89
2022-12-04T19:55:29.946Z,71.92
2022-12-04T19:58:02.724Z,71.85
2022-12-04T20:00:34.689Z,71.71
2022-12-04T20:03:02.475Z,71.99
2022-12-04T20:05:30.412Z,71.93
2022-12-04T20:10:24.961Z,72.45
2022-12-04T20:12:52.746Z,72.16
2022-12-04T20:15:20.544Z,72.29
2022-12-04T20:17:48.355Z,72.39
2022-12-04T20:20:16.181Z,72.20
2022-12-04T20:22:44.046Z,72.37
2022-12-04T20:25:11.820Z,72.28
2022-12-04T20:27:39.603Z,72.33
2022-12-04T20:30:08.091Z,72.14
2022-12-04T20:32:35.941Z,72.45
2022-12-04T20:35:04.127Z,72.56
2022-12-04T20:37:31.941Z,72.77
2022-12-04T20:40:02.374Z,72.61
2022-12-04T20:42:33.426Z,72.77
2022-12-04T20:45:01.750Z,73.06
2022-12-04T20:47:29.576Z,72.98
2022-12-04T20:49:57.709Z,72.84
2022-12-04T20:52:25.754Z,72.94
2022-12-04T20:54:53.521Z,72.97
2022-12-04T20:57:22.522Z,72.94
2022-12-04T20:59:50.422Z,73.21
2022-12-04T21:02:18.236Z,73.08
2022-12-04T21:04:46.277Z,72.99
2022-12-04T21:07:14.237Z,72.84
2022-12-04T21:09:42.368Z,72.98
2022-12-04T21:12:29.681Z,72.94
2022-12-04T21:15:16.765Z,72.80
2022-12-04T21:17:44.637Z,73.04
2022-12-04T21:20:12.564Z,73.13
2022-12-04T21:22:40.373Z,73.00
2022-12-04T21:25:09.139Z,73.32
2022-12-04T21:27:36.861Z,73.12
2022-12-04T21:30:05.416Z,73.20
2022-12-04T21:32:33.224Z,73.02
2022-12-04T21:35:01.626Z,73.08
2022-12-04T21:37:29.734Z,72.96
2022-12-04T21:39:59.373Z,73.00
2022-12-04T21:42:33.078Z,73.23
2022-12-04T21:45:02.325Z,73.15
2022-12-04T21:47:30.825Z,73.25
2022-12-04T21:49:59.159Z,73.19
2022-12-04T21:52:27.306Z,73.15
2022-12-04T21:54:55.462Z,73.18
2022-12-04T21:57:23.585Z,73.00
2022-12-04T21:59:52.288Z,73.24
2022-12-04T22:02:20.468Z,73.19
2022-12-04T22:04:48.487Z,73.15
2022-12-04T22:07:16.691Z,73.42
2022-12-04T22:09:46.307Z,73.49
2022-12-04T22:12:41.411Z,73.50
2022-12-04T22:15:01.731Z,73.63
2022-12-04T22:17:29.798Z,73.76
2022-12-04T22:19:57.737Z,73.49
2022-12-04T22:22:25.675Z,73.47
2022-12-04T22:24:53.379Z,73.70
2022-12-04T22:27:21.137Z,73.79
2022-12-04T22:30:02.152Z,73.79
2022-12-04T22:32:30.261Z,73.77
2022-12-04T22:34:58.111Z,73.79
2022-12-04T22:37:25.847Z,73.79
2022-12-04T22:39:53.565Z,73.78
2022-12-04T22:42:21.357Z,73.60
2022-12-04T22:44:49.109Z,73.82
2022-12-04T22:47:16.817Z,73.59
2022-12-04T22:49:47.251Z,73.73
2022-12-04T22:52:15.616Z,73.68
2022-12-04T22:54:43.321Z,73.81
2022-12-04T22:57:11.467Z,74.04
2022-12-04T22:59:39.216Z,73.94
2022-12-04T23:02:06.952Z,74.17
2022-12-04T23:04:34.854Z,74.23
2022-12-04T23:07:02.571Z,74.29
2022-12-04T23:09:30.362Z,74.19
2022-12-04T23:11:58.158Z,74.37
2022-12-04T23:14:28.725Z,74.35
2022-12-04T23:16:56.997Z,74.21
2022-12-04T23:19:24.932Z,74.21
2022-12-04T23:21:56.864Z,74.25
2022-12-04T23:24:25.996Z,74.49
2022-12-04T23:26:53.758Z,74.33
2022-12-04T23:29:52.165Z,74.20
2022-12-04T23:32:09.360Z,74.34
2022-12-04T23:34:37.127Z,74.08
2022-12-04T23:37:04.821Z,74.21
2022-12-04T23:39:32.545Z,74.22
2022-12-04T23:42:00.257Z,74.25
2022-12-04T23:44:27.943Z,74.48
2022-12-04T23:46:55.749Z,74.28
2022-12-04T23:49:23.618Z,74.21
2022-12-04T23:51:51.356Z,73.85
2022-12-04T23:54:19.123Z,74.00
2022-12-04T23:56:46.948Z,74.26
2022-12-04T23:59:14.645Z,74.19
